ROA weather

Roanokeā€“Blacksburg Regional Airport
Roanoke, Virginia, United States

Public forecast

Using degrees Fahrenheit for public forecast. Weather courtesy of forecast.io.

METAR (pilot weather report)

Retrieved 2019/05/25 19:54 UTC (57 minutes ago):

KROA 251954Z 17009G16KT 10SM FEW049 SCT065 BKN090 32/19 A3010 RMK AO2 SLP179 T03170189

TAF (pilot weather forecast)

Retrieved 2019/05/25 18:22 UTC (2 hours ago):

TAF KROA 251720Z 2518/2618 02005KT P6SM SCT040 BKN200 FM252000 22007KT P6SM VCTS SCT040CB FM260000 00000KT P6SM SCT060 BKN250